createdAt,value
2018-07-01T00:03:20.438Z,16.70
2018-07-01T00:05:47.737Z,16.70
2018-07-01T00:08:15.026Z,16.60
2018-07-01T00:10:42.446Z,16.60
2018-07-01T00:13:09.675Z,16.60
2018-07-01T00:15:36.973Z,16.50
2018-07-01T00:18:04.353Z,16.60
2018-07-01T00:20:31.642Z,16.60
2018-07-01T00:25:26.305Z,16.60
2018-07-01T00:27:53.612Z,16.60
2018-07-01T00:30:20.893Z,16.50
2018-07-01T00:32:48.209Z,16.50
2018-07-01T00:35:15.489Z,16.40
2018-07-01T00:37:42.836Z,16.40
2018-07-01T00:40:10.152Z,16.40
2018-07-01T00:42:37.405Z,16.40
2018-07-01T00:45:04.739Z,16.50
2018-07-01T00:47:32.015Z,16.50
2018-07-01T00:49:59.342Z,16.50
2018-07-01T00:52:26.701Z,16.50
2018-07-01T00:54:54.063Z,16.60
2018-07-01T00:57:21.337Z,16.60
2018-07-01T00:59:48.604Z,16.70
2018-07-01T01:02:15.880Z,16.80
2018-07-01T01:04:43.151Z,16.80
2018-07-01T01:07:10.496Z,16.80
2018-07-01T01:09:37.774Z,16.80
2018-07-01T01:14:32.476Z,16.80
2018-07-01T01:16:59.735Z,16.80
2018-07-01T01:19:27.041Z,16.80
2018-07-01T01:21:54.312Z,16.70
2018-07-01T01:24:21.581Z,16.70
2018-07-01T01:26:48.884Z,16.60
2018-07-01T01:29:16.096Z,16.50
2018-07-01T01:31:43.446Z,16.40
2018-07-01T01:34:10.736Z,16.40
2018-07-01T01:39:09.928Z,16.30
2018-07-01T01:41:42.623Z,16.30
2018-07-01T01:44:18.571Z,16.20
2018-07-01T01:46:53.163Z,16.20
2018-07-01T01:52:10.249Z,16.00
2018-07-01T01:54:42.880Z,16.00
2018-07-01T01:57:23.360Z,15.90
2018-07-01T01:59:55.013Z,15.90
2018-07-01T02:02:29.475Z,15.80
2018-07-01T02:05:03.684Z,15.80
2018-07-01T02:07:42.383Z,15.70
2018-07-01T02:10:09.663Z,15.70
2018-07-01T02:12:36.939Z,15.60
2018-07-01T02:15:07.779Z,15.60
2018-07-01T02:17:37.536Z,15.50
2018-07-01T02:20:05.226Z,15.50
2018-07-01T02:22:36.747Z,15.50
2018-07-01T02:25:07.224Z,15.30
2018-07-01T02:27:34.535Z,15.30
2018-07-01T02:30:01.860Z,15.30
2018-07-01T02:32:29.099Z,15.20
2018-07-01T02:34:56.316Z,15.10
2018-07-01T02:37:23.545Z,15.10
2018-07-01T02:39:50.808Z,15.10
2018-07-01T02:42:18.057Z,15.00
2018-07-01T02:44:45.301Z,15.00
2018-07-01T02:47:12.547Z,15.00
2018-07-01T02:49:39.777Z,15.00
2018-07-01T02:52:07.028Z,14.90
2018-07-01T02:54:34.302Z,14.90
2018-07-01T02:57:01.541Z,14.80
2018-07-01T02:59:28.802Z,14.70
2018-07-01T03:01:56.024Z,14.60
2018-07-01T03:04:23.353Z,14.60
2018-07-01T03:06:50.631Z,14.50
2018-07-01T03:09:17.868Z,14.40
2018-07-01T03:11:45.104Z,14.30
2018-07-01T03:14:12.355Z,14.20
2018-07-01T03:19:07.040Z,14.10
2018-07-01T03:21:34.304Z,14.00
2018-07-01T03:24:01.526Z,14.00
2018-07-01T03:28:56.036Z,14.00
2018-07-01T03:31:23.290Z,13.90
2018-07-01T03:33:50.561Z,13.80
2018-07-01T03:36:17.813Z,13.70
2018-07-01T03:38:45.068Z,13.70
2018-07-01T03:41:12.311Z,13.70
2018-07-01T03:43:39.528Z,13.70
2018-07-01T03:46:06.813Z,13.80
2018-07-01T03:48:34.088Z,13.80
2018-07-01T03:51:01.324Z,13.80
2018-07-01T03:53:28.613Z,13.70
2018-07-01T03:55:55.800Z,13.70
2018-07-01T03:58:23.115Z,13.70
2018-07-01T04:00:50.376Z,13.70
2018-07-01T04:03:17.616Z,13.80
2018-07-01T04:05:44.831Z,13.70
2018-07-01T04:08:12.166Z,13.70
2018-07-01T04:10:39.408Z,13.80
2018-07-01T04:13:06.936Z,13.80
2018-07-01T04:15:34.157Z,13.90
2018-07-01T04:18:01.392Z,14.00
2018-07-01T04:20:28.658Z,14.00
2018-07-01T04:22:55.920Z,14.20
2018-07-01T04:25:23.159Z,14.20
2018-07-01T04:30:17.603Z,14.40
2018-07-01T04:32:44.815Z,14.50
2018-07-01T04:35:12.059Z,14.50
2018-07-01T04:37:39.334Z,14.60
2018-07-01T04:40:06.573Z,14.70
2018-07-01T04:42:33.779Z,14.90
2018-07-01T04:45:01.049Z,15.30
2018-07-01T04:47:28.323Z,15.90
2018-07-01T04:49:55.557Z,16.50
2018-07-01T04:52:22.796Z,17.00
2018-07-01T04:54:50.048Z,17.40
2018-07-01T04:57:17.325Z,17.70
2018-07-01T04:59:44.600Z,17.90
2018-07-01T05:02:11.956Z,18.10
2018-07-01T05:04:39.181Z,18.30
2018-07-01T05:07:06.456Z,18.40
2018-07-01T05:09:33.687Z,18.50
2018-07-01T05:12:00.892Z,18.60
2018-07-01T05:16:55.478Z,18.50
2018-07-01T05:19:22.686Z,18.40
2018-07-01T05:21:49.941Z,18.30
2018-07-01T05:24:17.153Z,18.10
2018-07-01T05:26:44.421Z,18.10
2018-07-01T05:29:11.677Z,18.00
2018-07-01T05:31:38.996Z,17.90
2018-07-01T05:34:06.240Z,17.90
2018-07-01T05:36:33.485Z,17.90
2018-07-01T05:39:00.703Z,17.90
2018-07-01T05:41:27.932Z,17.90
2018-07-01T05:43:55.156Z,17.80
2018-07-01T05:46:22.406Z,17.80
2018-07-01T05:51:16.933Z,17.80
2018-07-01T05:56:11.441Z,17.80
2018-07-01T05:58:38.820Z,17.90
2018-07-01T06:01:06.064Z,17.90
2018-07-01T06:03:33.308Z,18.00
2018-07-01T06:06:00.579Z,18.00
2018-07-01T06:08:27.796Z,18.10
2018-07-01T06:13:22.340Z,18.10
2018-07-01T06:15:49.723Z,18.00
2018-07-01T06:18:16.958Z,18.00
2018-07-01T06:20:44.185Z,17.90
2018-07-01T06:23:11.539Z,17.90
2018-07-01T06:25:38.776Z,17.90
2018-07-01T06:28:06.656Z,17.80
2018-07-01T06:30:33.906Z,17.80
2018-07-01T06:33:01.131Z,17.80
2018-07-01T06:35:28.401Z,17.70
2018-07-01T06:37:55.596Z,17.70
2018-07-01T06:42:50.064Z,17.80
2018-07-01T06:45:17.588Z,17.80
2018-07-01T06:47:44.851Z,17.90
2018-07-01T06:50:12.190Z,17.90
2018-07-01T06:52:39.428Z,18.00
2018-07-01T06:55:06.692Z,18.00
2018-07-01T06:57:33.988Z,18.00
2018-07-01T07:00:01.274Z,18.10
2018-07-01T07:02:28.582Z,18.10
2018-07-01T07:04:55.796Z,18.10
2018-07-01T07:07:23.052Z,18.10
2018-07-01T07:09:50.288Z,18.10
2018-07-01T07:12:17.580Z,18.10
2018-07-01T07:14:44.824Z,18.10
2018-07-01T07:17:12.072Z,18.20
2018-07-01T07:19:39.327Z,18.20
2018-07-01T07:22:06.626Z,18.20
2018-07-01T07:24:33.853Z,18.20
2018-07-01T07:27:01.115Z,18.30
2018-07-01T07:29:28.381Z,18.40
2018-07-01T07:31:55.664Z,18.40
2018-07-01T07:34:22.923Z,18.40
2018-07-01T07:36:50.177Z,18.50
2018-07-01T07:39:17.495Z,18.60
2018-07-01T07:41:44.713Z,18.70
2018-07-01T07:44:11.937Z,18.70
2018-07-01T07:46:39.184Z,18.70
2018-07-01T07:49:06.428Z,18.80
2018-07-01T07:51:34.295Z,18.80
2018-07-01T07:54:01.529Z,18.80
2018-07-01T07:56:28.816Z,18.90
2018-07-01T07:58:56.075Z,18.90
2018-07-01T08:01:23.384Z,18.90
2018-07-01T08:03:50.608Z,19.00
2018-07-01T08:06:17.985Z,19.00
2018-07-01T08:08:45.325Z,19.00
2018-07-01T08:11:12.683Z,19.00
2018-07-01T08:13:39.913Z,19.10
2018-07-01T08:16:07.289Z,19.10
2018-07-01T08:18:34.556Z,19.10
2018-07-01T08:21:01.884Z,19.10
2018-07-01T08:23:29.156Z,19.20
2018-07-01T08:25:56.523Z,19.20
2018-07-01T08:28:23.851Z,19.20
2018-07-01T08:30:51.118Z,19.20
2018-07-01T08:33:18.399Z,19.30
2018-07-01T08:35:45.709Z,19.30
2018-07-01T08:38:13.056Z,19.30
2018-07-01T08:40:40.397Z,19.30
2018-07-01T08:43:07.752Z,19.40
2018-07-01T08:45:35.005Z,19.40
2018-07-01T08:48:02.418Z,19.40
2018-07-01T08:50:29.700Z,19.50
2018-07-01T08:52:56.980Z,19.50
2018-07-01T08:55:24.243Z,19.60
2018-07-01T08:57:51.552Z,19.60
2018-07-01T09:02:46.184Z,19.70
2018-07-01T09:07:40.747Z,19.80
2018-07-01T09:10:07.959Z,19.80
2018-07-01T09:12:35.198Z,19.90
2018-07-01T09:15:02.486Z,20.00
2018-07-01T09:17:29.716Z,20.10
2018-07-01T09:19:56.959Z,20.20
2018-07-01T09:22:24.211Z,20.20
2018-07-01T09:24:51.476Z,20.20
2018-07-01T09:29:51.885Z,20.30
2018-07-01T09:32:19.147Z,20.30
2018-07-01T09:34:46.753Z,20.40
2018-07-01T09:37:14.759Z,20.40
2018-07-01T09:39:42.011Z,20.40
2018-07-01T09:42:09.235Z,20.40
2018-07-01T09:44:36.475Z,20.40
2018-07-01T09:47:03.800Z,20.50
2018-07-01T09:49:31.072Z,20.60
2018-07-01T09:51:58.556Z,20.60
2018-07-01T09:54:25.928Z,20.70
2018-07-01T09:59:20.387Z,20.70
2018-07-01T10:01:47.625Z,20.80
2018-07-01T10:06:42.298Z,20.80
2018-07-01T10:09:10.042Z,20.90
2018-07-01T10:14:06.411Z,20.80
2018-07-01T10:16:33.996Z,20.90
2018-07-01T10:19:01.397Z,20.90
2018-07-01T10:21:28.919Z,20.90
2018-07-01T10:23:56.313Z,20.90
2018-07-01T10:26:23.647Z,20.90
2018-07-01T10:29:03.037Z,21.00
2018-07-01T10:31:30.363Z,21.00
2018-07-01T10:33:57.804Z,21.00
2018-07-01T10:36:25.032Z,21.10
2018-07-01T10:38:52.321Z,21.20
2018-07-01T10:41:19.627Z,21.20
2018-07-01T10:43:47.032Z,21.30
2018-07-01T10:46:14.308Z,21.30
2018-07-01T10:48:41.668Z,21.40
2018-07-01T10:51:08.947Z,21.40
2018-07-01T10:53:36.421Z,21.40
2018-07-01T10:56:03.745Z,21.40
2018-07-01T10:58:31.116Z,21.40
2018-07-01T11:00:58.408Z,21.40
2018-07-01T11:03:25.764Z,21.40
2018-07-01T11:05:53.231Z,21.50
2018-07-01T11:08:20.511Z,21.50
2018-07-01T11:10:47.900Z,21.50
2018-07-01T11:13:15.300Z,21.60
2018-07-01T11:15:42.546Z,21.60
2018-07-01T11:18:10.771Z,21.60
2018-07-01T11:20:38.090Z,21.70
2018-07-01T11:23:05.379Z,21.70
2018-07-01T11:25:32.591Z,21.70
2018-07-01T11:27:59.971Z,21.70
2018-07-01T11:30:27.260Z,21.70
2018-07-01T11:32:54.552Z,21.70
2018-07-01T11:35:21.830Z,21.70
2018-07-01T11:37:49.125Z,21.70
2018-07-01T11:40:16.464Z,21.70
2018-07-01T11:42:43.816Z,21.70
2018-07-01T11:47:38.386Z,21.80
2018-07-01T11:50:05.850Z,21.80
2018-07-01T11:52:33.160Z,21.90
2018-07-01T11:55:00.472Z,22.00
2018-07-01T11:57:27.875Z,22.00
2018-07-01T11:59:55.165Z,22.10
2018-07-01T12:02:22.453Z,22.10
2018-07-01T12:05:02.954Z,22.10
2018-07-01T12:07:17.158Z,22.20
2018-07-01T12:09:44.553Z,22.20
2018-07-01T12:12:12.333Z,22.20
2018-07-01T12:14:39.728Z,22.30
2018-07-01T12:19:34.383Z,22.30
2018-07-01T12:22:01.644Z,22.30
2018-07-01T12:24:28.882Z,22.30
2018-07-01T12:26:56.342Z,22.30
2018-07-01T12:29:23.689Z,22.40
2018-07-01T12:31:51.206Z,22.40
2018-07-01T12:34:18.484Z,22.40
2018-07-01T12:36:45.811Z,22.50
2018-07-01T12:39:13.063Z,22.50
2018-07-01T12:41:40.381Z,22.60
2018-07-01T12:44:07.756Z,22.60
2018-07-01T12:46:35.770Z,22.60
2018-07-01T12:49:03.067Z,22.60
2018-07-01T12:51:30.419Z,22.70
2018-07-01T12:53:58.016Z,22.70
2018-07-01T12:56:25.403Z,22.70
2018-07-01T12:58:52.736Z,22.80
2018-07-01T13:01:20.305Z,22.90
2018-07-01T13:03:47.728Z,22.90
2018-07-01T13:06:15.079Z,23.10
2018-07-01T13:11:09.753Z,23.20
2018-07-01T13:13:37.016Z,23.20
2018-07-01T13:16:04.313Z,23.30
2018-07-01T13:18:31.559Z,23.40
2018-07-01T13:20:58.911Z,23.40
2018-07-01T13:23:26.213Z,23.40
2018-07-01T13:25:53.599Z,23.40
2018-07-01T13:28:20.921Z,23.40
2018-07-01T13:30:48.196Z,23.40
2018-07-01T13:33:15.445Z,23.40
2018-07-01T13:35:42.736Z,23.40
2018-07-01T13:38:09.968Z,23.30
2018-07-01T13:40:37.233Z,23.40
2018-07-01T13:43:04.577Z,23.40
2018-07-01T13:47:59.117Z,23.50
2018-07-01T13:50:26.411Z,23.50
2018-07-01T13:52:53.727Z,23.50
2018-07-01T13:55:21.067Z,23.50
2018-07-01T13:57:48.295Z,23.50
2018-07-01T14:00:15.519Z,23.50
2018-07-01T14:02:43.053Z,23.60
2018-07-01T14:05:10.351Z,23.60
2018-07-01T14:07:37.687Z,23.60
2018-07-01T14:10:04.967Z,23.70
2018-07-01T14:12:32.227Z,23.70
2018-07-01T14:14:59.445Z,23.70
2018-07-01T14:17:26.819Z,23.80
2018-07-01T14:19:54.083Z,23.70
2018-07-01T14:22:21.259Z,23.70
2018-07-01T14:24:48.563Z,23.70
2018-07-01T14:27:15.867Z,23.70
2018-07-01T14:29:43.147Z,23.70
2018-07-01T14:32:10.365Z,23.70
2018-07-01T14:34:37.827Z,23.80
2018-07-01T14:37:05.319Z,23.80
2018-07-01T14:39:33.093Z,23.80
2018-07-01T14:44:27.799Z,23.80
2018-07-01T14:46:55.049Z,23.80
2018-07-01T14:49:22.274Z,23.80
2018-07-01T14:51:49.596Z,23.90
2018-07-01T14:54:16.868Z,23.90
2018-07-01T14:56:44.108Z,23.90
2018-07-01T14:59:11.349Z,24.00
2018-07-01T15:01:38.576Z,24.00
2018-07-01T15:04:05.835Z,24.00
2018-07-01T15:06:33.221Z,24.00
2018-07-01T15:09:00.535Z,24.00
2018-07-01T15:11:27.880Z,24.00
2018-07-01T15:13:55.108Z,23.90
2018-07-01T15:16:22.508Z,23.90
2018-07-01T15:18:49.691Z,23.90
2018-07-01T15:21:16.904Z,23.90
2018-07-01T15:23:44.285Z,23.90
2018-07-01T15:26:11.873Z,23.90
2018-07-01T15:28:39.107Z,23.90
2018-07-01T15:31:06.869Z,24.00
2018-07-01T15:33:34.064Z,24.00
2018-07-01T15:36:01.357Z,24.00
2018-07-01T15:38:28.623Z,24.00
2018-07-01T15:40:55.870Z,24.00
2018-07-01T15:43:23.081Z,24.00
2018-07-01T15:45:50.347Z,24.00
2018-07-01T15:48:17.610Z,24.00
2018-07-01T15:50:44.815Z,24.00
2018-07-01T15:53:12.151Z,24.00
2018-07-01T15:55:39.425Z,24.00
2018-07-01T15:58:06.703Z,24.00
2018-07-01T16:00:34.021Z,24.00
2018-07-01T16:03:01.279Z,24.00
2018-07-01T16:05:28.537Z,24.00
2018-07-01T16:07:55.752Z,23.90
2018-07-01T16:10:23.103Z,23.90
2018-07-01T16:12:50.331Z,23.90
2018-07-01T16:15:17.640Z,23.90
2018-07-01T16:17:44.918Z,23.90
2018-07-01T16:20:12.136Z,23.90
2018-07-01T16:22:39.425Z,24.00
2018-07-01T16:25:12.478Z,24.00
2018-07-01T16:27:41.233Z,24.00
2018-07-01T16:30:08.503Z,24.00
2018-07-01T16:32:36.347Z,24.00
2018-07-01T16:35:03.721Z,24.00
2018-07-01T16:37:31.577Z,24.00
2018-07-01T16:39:58.937Z,24.10
2018-07-01T16:42:26.296Z,24.00
2018-07-01T16:47:20.952Z,24.00
2018-07-01T16:49:48.163Z,24.00
2018-07-01T16:52:15.416Z,24.00
2018-07-01T16:54:42.639Z,23.90
2018-07-01T16:57:10.045Z,23.90
2018-07-01T16:59:37.305Z,23.90
2018-07-01T17:02:04.844Z,23.90
2018-07-01T17:04:32.146Z,23.90
2018-07-01T17:06:59.461Z,23.90
2018-07-01T17:09:26.659Z,23.90
2018-07-01T17:11:53.855Z,23.90
2018-07-01T17:14:21.116Z,23.90
2018-07-01T17:16:48.380Z,23.90
2018-07-01T17:19:15.568Z,23.90
2018-07-01T17:21:42.837Z,23.90
2018-07-01T17:24:10.052Z,23.80
2018-07-01T17:26:37.277Z,23.80
2018-07-01T17:29:04.602Z,23.80
2018-07-01T17:31:37.643Z,23.80
2018-07-01T17:34:04.956Z,23.80
2018-07-01T17:36:32.264Z,23.80
2018-07-01T17:38:59.527Z,23.80
2018-07-01T17:41:26.765Z,23.80
2018-07-01T17:43:53.975Z,23.80
2018-07-01T17:46:21.179Z,23.70
2018-07-01T17:48:48.412Z,23.70
2018-07-01T17:53:51.153Z,23.70
2018-07-01T17:56:18.394Z,23.60
2018-07-01T17:58:45.856Z,23.60
2018-07-01T18:03:40.355Z,23.60
2018-07-01T18:06:07.576Z,23.60
2018-07-01T18:08:35.457Z,23.50
2018-07-01T18:11:02.739Z,23.50
2018-07-01T18:13:30.175Z,23.50
2018-07-01T18:18:24.758Z,23.40
2018-07-01T18:20:52.008Z,23.30
2018-07-01T18:23:53.699Z,23.30
2018-07-01T18:25:46.529Z,23.20
2018-07-01T18:28:22.702Z,23.20
2018-07-01T18:30:41.041Z,23.10
2018-07-01T18:35:35.965Z,23.00
2018-07-01T18:38:03.238Z,23.00
2018-07-01T18:42:57.854Z,22.80
2018-07-01T18:45:25.180Z,22.80
2018-07-01T18:47:52.447Z,22.70
2018-07-01T18:50:19.707Z,22.60
2018-07-01T18:52:47.140Z,22.60
2018-07-01T19:00:08.928Z,22.30
2018-07-01T19:02:36.231Z,22.20
2018-07-01T19:05:04.207Z,22.20
2018-07-01T19:07:31.743Z,22.10
2018-07-01T19:09:59.079Z,22.00
2018-07-01T19:12:26.322Z,21.90
2018-07-01T19:14:53.532Z,21.90
2018-07-01T19:17:21.457Z,21.70
2018-07-01T19:19:48.735Z,21.70
2018-07-01T19:22:16.064Z,21.60
2018-07-01T19:24:43.274Z,21.50
2018-07-01T19:27:10.586Z,21.40
2018-07-01T19:32:05.167Z,21.20
2018-07-01T19:34:32.451Z,21.10
2018-07-01T19:36:59.720Z,21.00
2018-07-01T19:39:26.980Z,21.00
2018-07-01T19:41:54.272Z,20.90
2018-07-01T19:44:21.551Z,20.80
2018-07-01T19:49:16.161Z,20.60
2018-07-01T19:51:43.516Z,20.50
2018-07-01T19:54:10.756Z,20.40
2018-07-01T19:56:37.965Z,20.30
2018-07-01T19:59:05.356Z,20.20
2018-07-01T20:01:32.587Z,20.20
2018-07-01T20:03:59.855Z,20.10
2018-07-01T20:06:27.184Z,20.00
2018-07-01T20:08:54.371Z,20.00
2018-07-01T20:11:21.596Z,19.90
2018-07-01T20:13:48.861Z,19.80
2018-07-01T20:16:16.095Z,19.80
2018-07-01T20:18:43.436Z,19.70
2018-07-01T20:21:10.659Z,19.70
2018-07-01T20:23:37.860Z,19.60
2018-07-01T20:26:05.136Z,19.60
2018-07-01T20:28:32.385Z,19.50
2018-07-01T20:30:59.620Z,19.50
2018-07-01T20:33:26.909Z,19.40
2018-07-01T20:35:54.227Z,19.40
2018-07-01T20:38:21.531Z,19.40
2018-07-01T20:40:48.972Z,19.30
2018-07-01T20:43:16.270Z,19.30
2018-07-01T20:45:43.503Z,19.20
2018-07-01T20:48:10.827Z,19.20
2018-07-01T20:50:38.080Z,19.20
2018-07-01T20:53:05.428Z,19.10
2018-07-01T20:55:32.687Z,19.10
2018-07-01T20:57:59.995Z,19.00
2018-07-01T21:00:27.253Z,19.00
2018-07-01T21:02:54.599Z,18.90
2018-07-01T21:05:21.899Z,18.90
2018-07-01T21:07:49.205Z,18.80
2018-07-01T21:10:16.448Z,18.80
2018-07-01T21:15:11.125Z,18.70
2018-07-01T21:17:39.233Z,18.60
2018-07-01T21:20:06.665Z,18.60
2018-07-01T21:22:33.953Z,18.60
2018-07-01T21:25:01.249Z,18.50
2018-07-01T21:27:28.597Z,18.50
2018-07-01T21:29:55.896Z,18.40
2018-07-01T21:34:50.450Z,18.30
2018-07-01T21:37:17.744Z,18.30
2018-07-01T21:39:44.986Z,18.30
2018-07-01T21:42:12.333Z,18.20
2018-07-01T21:44:39.600Z,18.20
2018-07-01T21:47:06.875Z,18.10
2018-07-01T21:49:34.172Z,18.10
2018-07-01T21:52:01.413Z,18.00
2018-07-01T21:54:28.780Z,17.90
2018-07-01T21:56:56.091Z,17.90
2018-07-01T21:59:23.373Z,17.80
2018-07-01T22:01:50.677Z,17.80
2018-07-01T22:04:17.950Z,17.80
2018-07-01T22:06:51.021Z,17.70
2018-07-01T22:09:18.313Z,17.70
2018-07-01T22:11:58.843Z,17.70
2018-07-01T22:14:27.621Z,17.60
2018-07-01T22:16:55.057Z,17.60
2018-07-01T22:19:22.307Z,17.50
2018-07-01T22:21:50.716Z,17.50
2018-07-01T22:24:17.991Z,17.50
2018-07-01T22:26:45.296Z,17.40
2018-07-01T22:29:14.612Z,17.40
2018-07-01T22:31:41.887Z,17.30
2018-07-01T22:34:10.553Z,17.30
2018-07-01T22:36:37.864Z,17.30
2018-07-01T22:39:09.760Z,17.20
2018-07-01T22:41:37.124Z,17.20
2018-07-01T22:44:04.373Z,17.10
2018-07-01T22:51:26.419Z,17.10
2018-07-01T22:53:54.206Z,17.00
2018-07-01T22:56:21.555Z,17.00
2018-07-01T22:58:48.828Z,16.90
2018-07-01T23:01:16.117Z,16.90
2018-07-01T23:03:43.345Z,16.80
2018-07-01T23:06:10.620Z,16.80
2018-07-01T23:08:37.940Z,16.80
2018-07-01T23:11:05.273Z,16.80
2018-07-01T23:13:32.544Z,16.80
2018-07-01T23:15:59.870Z,16.80
2018-07-01T23:18:27.173Z,16.80
2018-07-01T23:20:54.468Z,16.80
2018-07-01T23:23:21.832Z,16.80
2018-07-01T23:25:49.129Z,16.90
2018-07-01T23:28:16.403Z,17.00
2018-07-01T23:30:43.674Z,17.00
2018-07-01T23:33:11.005Z,17.00
2018-07-01T23:40:32.845Z,17.00
2018-07-01T23:43:00.169Z,17.00
2018-07-01T23:47:54.724Z,16.90
2018-07-01T23:50:22.009Z,16.90
2018-07-01T23:52:49.260Z,16.90
2018-07-01T23:55:16.531Z,16.80
2018-07-01T23:57:43.897Z,16.80
